createdAt,value
2022-09-03T00:00:25.570Z,13.34
2022-09-03T00:03:13.329Z,13.52
2022-09-03T00:05:51.610Z,13.60
2022-09-03T00:08:36.191Z,13.69
2022-09-03T00:11:11.886Z,13.73
2022-09-03T00:13:52.355Z,13.50
2022-09-03T00:16:21.865Z,13.37
2022-09-03T00:18:55.028Z,13.22
2022-09-03T00:21:36.733Z,13.33
2022-09-03T00:24:06.956Z,13.44
2022-09-03T00:26:45.291Z,13.45
2022-09-03T00:29:17.516Z,13.43
2022-09-03T00:32:04.824Z,13.58
2022-09-03T00:34:39.742Z,13.58
2022-09-03T00:37:08.071Z,13.63
2022-09-03T00:39:41.797Z,13.49
2022-09-03T00:42:17.485Z,13.51
2022-09-03T00:44:57.197Z,13.38
2022-09-03T00:47:40.756Z,13.25
2022-09-03T00:50:22.530Z,12.97
2022-09-03T00:53:05.886Z,12.97
2022-09-03T00:55:38.010Z,13.00
2022-09-03T00:58:15.774Z,13.01
2022-09-03T01:00:45.860Z,13.05
2022-09-03T01:03:42.665Z,13.00
2022-09-03T01:06:20.860Z,13.01
2022-09-03T01:09:00.463Z,12.95
2022-09-03T01:11:47.143Z,12.92
2022-09-03T01:14:53.013Z,12.77
2022-09-03T01:17:51.905Z,12.56
2022-09-03T01:20:30.259Z,12.52
2022-09-03T01:23:20.289Z,12.51
2022-09-03T01:25:52.796Z,12.44
2022-09-03T01:28:40.867Z,12.31
2022-09-03T01:31:28.629Z,12.22
2022-09-03T01:34:21.603Z,12.09
2022-09-03T01:37:04.790Z,12.15
2022-09-03T01:39:42.685Z,12.11
2022-09-03T01:42:27.824Z,11.98
2022-09-03T01:45:00.403Z,11.90
2022-09-03T01:47:51.480Z,11.88
2022-09-03T01:50:46.424Z,11.83
2022-09-03T01:53:25.554Z,11.78
2022-09-03T01:56:01.302Z,11.71
2022-09-03T01:58:43.011Z,11.63
2022-09-03T02:01:18.137Z,11.74
2022-09-03T02:03:47.026Z,11.66
2022-09-03T02:06:13.538Z,11.63
2022-09-03T02:08:40.516Z,11.77
2022-09-03T02:11:09.766Z,11.73
2022-09-03T02:13:41.434Z,11.86
2022-09-03T02:16:20.564Z,11.98
2022-09-03T02:18:51.568Z,11.99
2022-09-03T02:21:21.120Z,12.07
2022-09-03T02:23:48.413Z,12.22
2022-09-03T02:26:24.615Z,12.27
2022-09-03T02:28:54.242Z,12.39
2022-09-03T02:31:20.778Z,12.37
2022-09-03T02:33:49.605Z,12.35
2022-09-03T02:36:19.743Z,12.39
2022-09-03T02:38:46.571Z,12.29
2022-09-03T02:41:15.535Z,12.30
2022-09-03T02:44:00.335Z,12.05
2022-09-03T02:46:39.171Z,12.15
2022-09-03T02:49:05.762Z,12.11
2022-09-03T02:51:36.606Z,12.23
2022-09-03T02:54:04.690Z,12.40
2022-09-03T02:56:31.153Z,12.49
2022-09-03T02:58:57.683Z,12.43
2022-09-03T03:01:24.749Z,12.38
2022-09-03T03:03:51.315Z,12.27
2022-09-03T03:06:21.299Z,12.13
2022-09-03T03:08:49.768Z,12.12
2022-09-03T03:11:18.263Z,12.32
2022-09-03T03:13:46.855Z,12.47
2022-09-03T03:16:15.457Z,12.43
2022-09-03T03:18:42.459Z,12.53
2022-09-03T03:21:11.436Z,12.52
2022-09-03T03:23:39.326Z,12.43
2022-09-03T03:26:08.767Z,12.46
2022-09-03T03:28:35.471Z,12.36
2022-09-03T03:31:11.290Z,12.31
2022-09-03T03:33:38.267Z,12.31
2022-09-03T03:36:15.946Z,12.21
2022-09-03T03:38:44.399Z,12.12
2022-09-03T03:41:17.439Z,12.16
2022-09-03T03:43:44.213Z,12.26
2022-09-03T03:46:12.561Z,12.30
2022-09-03T03:48:39.127Z,12.27
2022-09-03T03:51:08.082Z,12.31
2022-09-03T03:53:37.857Z,12.34
2022-09-03T03:56:07.184Z,12.33
2022-09-03T03:58:33.966Z,12.33
2022-09-03T04:01:08.861Z,12.35
2022-09-03T04:03:36.220Z,12.33
2022-09-03T04:06:04.627Z,12.27
2022-09-03T04:08:34.316Z,12.32
2022-09-03T04:11:02.511Z,12.30
2022-09-03T04:13:32.864Z,12.35
2022-09-03T04:16:06.808Z,12.34
2022-09-03T04:18:35.723Z,12.36
2022-09-03T04:21:04.201Z,12.32
2022-09-03T04:23:32.621Z,12.39
2022-09-03T04:25:59.587Z,12.40
2022-09-03T04:28:26.911Z,12.34
2022-09-03T04:30:53.871Z,12.31
2022-09-03T04:33:20.724Z,12.05
2022-09-03T04:35:47.088Z,11.54
2022-09-03T04:38:13.991Z,11.55
2022-09-03T04:40:40.400Z,11.67
2022-09-03T04:43:06.760Z,11.76
2022-09-03T04:45:33.580Z,11.89
2022-09-03T04:48:04.015Z,11.90
2022-09-03T04:50:33.411Z,11.99
2022-09-03T04:53:04.513Z,12.13
2022-09-03T04:55:38.778Z,12.28
2022-09-03T04:58:07.670Z,12.26
2022-09-03T05:00:35.664Z,12.48
2022-09-03T05:03:03.000Z,12.69
2022-09-03T05:05:29.466Z,12.87
2022-09-03T05:07:58.900Z,12.89
2022-09-03T05:10:25.432Z,12.96
2022-09-03T05:13:00.252Z,13.12
2022-09-03T05:15:27.436Z,13.24
2022-09-03T05:18:04.317Z,13.26
2022-09-03T05:20:32.557Z,13.28
2022-09-03T05:23:03.647Z,13.32
2022-09-03T05:25:32.779Z,13.32
2022-09-03T05:27:59.708Z,12.98
2022-09-03T05:30:26.165Z,12.94
2022-09-03T05:32:53.024Z,12.95
2022-09-03T05:35:22.944Z,12.91
2022-09-03T05:37:55.196Z,12.66
2022-09-03T05:40:21.550Z,12.60
2022-09-03T05:42:48.384Z,12.55
2022-09-03T05:45:14.855Z,12.70
2022-09-03T05:47:41.255Z,13.13
2022-09-03T05:50:11.783Z,13.34
2022-09-03T05:52:38.201Z,13.60
2022-09-03T05:55:04.983Z,13.67
2022-09-03T05:57:31.795Z,13.87
2022-09-03T05:59:58.163Z,13.84
2022-09-03T06:02:24.683Z,13.92
2022-09-03T06:04:51.648Z,14.34
2022-09-03T06:07:18.105Z,14.70
2022-09-03T06:09:44.524Z,14.71
2022-09-03T06:12:11.372Z,14.79
2022-09-03T06:14:38.324Z,15.00
2022-09-03T06:17:04.714Z,14.77
2022-09-03T06:19:31.131Z,15.04
2022-09-03T06:21:57.854Z,15.07
2022-09-03T06:24:28.109Z,14.95
2022-09-03T06:26:58.283Z,15.21
2022-09-03T06:29:25.317Z,15.20
2022-09-03T06:31:52.274Z,14.89
2022-09-03T06:34:18.920Z,14.84
2022-09-03T06:36:46.657Z,14.88
2022-09-03T06:39:13.189Z,14.86
2022-09-03T06:41:40.014Z,14.99
2022-09-03T06:44:12.220Z,14.85
2022-09-03T06:46:42.205Z,14.73
2022-09-03T06:49:09.529Z,14.85
2022-09-03T06:51:38.181Z,14.94
2022-09-03T06:54:09.551Z,15.27
2022-09-03T06:56:40.539Z,15.78
2022-09-03T06:59:10.901Z,16.16
2022-09-03T07:01:44.146Z,16.27
2022-09-03T07:04:13.612Z,16.43
2022-09-03T07:06:42.286Z,16.28
2022-09-03T07:09:10.599Z,15.32
2022-09-03T07:11:37.946Z,15.64
2022-09-03T07:14:05.104Z,15.38
2022-09-03T07:16:36.668Z,15.02
2022-09-03T07:19:05.039Z,15.31
2022-09-03T07:21:34.482Z,15.71
2022-09-03T07:24:02.307Z,15.97
2022-09-03T07:26:31.333Z,16.23
2022-09-03T07:29:01.143Z,18.07
2022-09-03T07:31:31.855Z,19.58
2022-09-03T07:33:59.846Z,21.01
2022-09-03T07:36:29.013Z,22.36
2022-09-03T07:39:00.815Z,23.17
2022-09-03T07:41:28.749Z,20.71
2022-09-03T07:43:57.523Z,20.35
2022-09-03T07:46:27.214Z,18.94
2022-09-03T07:48:56.734Z,19.03
2022-09-03T07:51:27.224Z,18.61
2022-09-03T07:53:59.271Z,19.07
2022-09-03T07:56:27.687Z,19.29
2022-09-03T07:58:57.227Z,18.67
2022-09-03T08:01:25.223Z,18.65
2022-09-03T08:03:54.043Z,18.63
2022-09-03T08:06:22.795Z,18.55
2022-09-03T08:08:49.435Z,18.21
2022-09-03T08:11:21.791Z,17.28
2022-09-03T08:13:57.524Z,17.10
2022-09-03T08:16:24.921Z,17.03
2022-09-03T08:18:51.346Z,16.53
2022-09-03T08:21:20.010Z,17.43
2022-09-03T08:23:48.728Z,17.30
2022-09-03T08:26:17.163Z,17.74
2022-09-03T08:28:44.302Z,17.39
2022-09-03T08:31:14.165Z,17.78
2022-09-03T08:33:43.076Z,17.86
2022-09-03T08:36:15.684Z,18.05
2022-09-03T08:38:45.419Z,18.52
2022-09-03T08:41:36.271Z,18.95
2022-09-03T08:44:31.350Z,19.95
2022-09-03T08:47:28.496Z,19.09
2022-09-03T08:49:55.613Z,17.68
2022-09-03T08:52:28.163Z,18.25
2022-09-03T08:55:03.495Z,18.49
2022-09-03T08:57:36.898Z,18.93
2022-09-03T09:00:04.814Z,18.42
2022-09-03T09:02:46.835Z,18.84
2022-09-03T09:05:24.867Z,19.03
2022-09-03T09:08:29.214Z,18.85
2022-09-03T09:11:06.091Z,18.41
2022-09-03T09:13:46.574Z,18.50
2022-09-03T09:16:29.654Z,18.53
2022-09-03T09:19:01.938Z,17.94
2022-09-03T09:21:32.699Z,17.57
2022-09-03T09:24:04.400Z,18.04
2022-09-03T09:26:31.294Z,18.21
2022-09-03T09:29:03.755Z,18.35
2022-09-03T09:31:31.088Z,18.24
2022-09-03T09:34:07.236Z,17.60
2022-09-03T09:36:45.136Z,18.15
2022-09-03T09:39:12.711Z,18.00
2022-09-03T09:41:39.116Z,17.80
2022-09-03T09:44:05.634Z,17.83
2022-09-03T09:46:37.555Z,18.03
2022-09-03T09:49:28.605Z,17.83
2022-09-03T09:52:08.379Z,17.62
2022-09-03T09:54:34.928Z,17.55
2022-09-03T09:57:04.914Z,17.52
2022-09-03T09:59:32.410Z,17.45
2022-09-03T10:02:23.980Z,17.63
2022-09-03T10:04:50.594Z,17.51
2022-09-03T10:07:30.040Z,17.68
2022-09-03T10:10:01.817Z,17.71
2022-09-03T10:12:30.999Z,17.92
2022-09-03T10:15:19.043Z,18.39
2022-09-03T10:17:55.216Z,18.77
2022-09-03T10:20:47.591Z,19.33
2022-09-03T10:23:21.199Z,19.94
2022-09-03T10:26:04.425Z,20.67
2022-09-03T10:28:31.477Z,20.61
2022-09-03T10:31:23.109Z,21.34
2022-09-03T10:33:59.328Z,20.88
2022-09-03T10:36:52.843Z,21.75
2022-09-03T10:39:52.157Z,21.93
2022-09-03T10:42:22.142Z,21.15
2022-09-03T10:45:04.079Z,21.74
2022-09-03T10:47:31.749Z,22.24
2022-09-03T10:50:10.171Z,21.25
2022-09-03T10:52:58.738Z,21.32
2022-09-03T10:55:36.282Z,22.28
2022-09-03T10:58:27.841Z,22.03
2022-09-03T11:01:03.606Z,23.29
2022-09-03T11:03:43.632Z,23.46
2022-09-03T11:06:17.083Z,23.78
2022-09-03T11:09:23.452Z,23.01
2022-09-03T11:11:53.089Z,22.59
2022-09-03T11:14:45.092Z,21.92
2022-09-03T11:17:22.460Z,22.88
2022-09-03T11:19:56.468Z,24.11
2022-09-03T11:22:24.597Z,22.69
2022-09-03T11:24:56.875Z,22.97
2022-09-03T11:28:10.242Z,23.15
2022-09-03T11:30:49.939Z,23.29
2022-09-03T11:33:23.964Z,25.39
2022-09-03T11:35:57.623Z,22.86
2022-09-03T11:38:27.768Z,24.08
2022-09-03T11:41:24.194Z,23.36
2022-09-03T11:43:51.134Z,23.23
2022-09-03T11:46:23.660Z,23.20
2022-09-03T11:49:10.849Z,24.40
2022-09-03T11:51:41.793Z,23.44
2022-09-03T11:54:14.586Z,22.86
2022-09-03T11:56:42.394Z,22.58
2022-09-03T11:59:15.416Z,22.43
2022-09-03T12:02:13.494Z,21.80
2022-09-03T12:05:20.699Z,22.31
2022-09-03T12:08:06.734Z,22.93
2022-09-03T12:11:01.967Z,22.85
2022-09-03T12:13:45.999Z,22.07
2022-09-03T12:16:56.599Z,22.10
2022-09-03T12:19:41.084Z,21.77
2022-09-03T12:22:15.500Z,21.35
2022-09-03T12:24:43.922Z,21.30
2022-09-03T12:27:25.131Z,21.26
2022-09-03T12:30:00.099Z,21.13
2022-09-03T12:32:37.771Z,20.95
2022-09-03T12:38:06.819Z,20.63
2022-09-03T12:40:35.441Z,20.61
2022-09-03T12:43:37.593Z,20.51
2022-09-03T12:46:12.984Z,20.50
2022-09-03T12:48:43.606Z,20.05
2022-09-03T12:53:57.668Z,18.20
2022-09-03T12:56:27.508Z,17.26
2022-09-03T12:58:58.274Z,17.15
2022-09-03T13:01:31.203Z,17.33
2022-09-03T13:04:19.401Z,17.69
2022-09-03T13:06:51.659Z,17.64
2022-09-03T13:09:25.051Z,17.83
2022-09-03T13:11:52.491Z,17.70
2022-09-03T13:14:19.944Z,17.90
2022-09-03T13:16:53.053Z,17.51
2022-09-03T13:19:35.716Z,17.98
2022-09-03T13:22:02.427Z,17.94
2022-09-03T13:24:42.532Z,18.12
2022-09-03T13:27:18.083Z,18.15
2022-09-03T13:30:05.995Z,18.64
2022-09-03T13:32:40.494Z,18.19
2022-09-03T13:35:16.824Z,18.84
2022-09-03T13:37:58.940Z,19.49
2022-09-03T13:40:38.304Z,19.54
2022-09-03T13:43:30.241Z,20.46
2022-09-03T13:46:06.198Z,20.63
2022-09-03T13:49:00.284Z,19.55
2022-09-03T13:51:51.671Z,18.40
2022-09-03T13:54:49.394Z,18.95
2022-09-03T13:57:39.835Z,20.07
2022-09-03T14:00:10.859Z,21.08
2022-09-03T14:03:07.448Z,20.88
2022-09-03T14:06:11.764Z,20.44
2022-09-03T14:08:58.896Z,20.29
2022-09-03T14:11:55.419Z,20.95
2022-09-03T14:14:59.968Z,20.19
2022-09-03T14:17:41.852Z,20.27
2022-09-03T14:20:28.922Z,20.24
2022-09-03T14:23:27.426Z,19.50
2022-09-03T14:25:55.687Z,19.56
2022-09-03T14:28:34.830Z,18.97
2022-09-03T14:31:24.130Z,18.28
2022-09-03T14:33:59.514Z,18.85
2022-09-03T14:36:57.327Z,17.95
2022-09-03T14:39:55.815Z,18.39
2022-09-03T14:42:36.979Z,18.11
2022-09-03T14:45:06.571Z,19.01
2022-09-03T14:47:54.822Z,20.52
2022-09-03T14:50:46.367Z,20.05
2022-09-03T14:53:21.723Z,19.49
2022-09-03T14:56:06.922Z,19.73
2022-09-03T14:59:02.618Z,19.38
2022-09-03T15:01:38.786Z,19.65
2022-09-03T15:04:33.947Z,20.01
2022-09-03T15:07:46.075Z,19.22
2022-09-03T15:10:21.750Z,18.70
2022-09-03T15:13:20.682Z,18.71
2022-09-03T15:16:04.021Z,18.71
2022-09-03T15:19:10.504Z,18.53
2022-09-03T15:22:15.344Z,18.85
2022-09-03T15:24:54.109Z,18.99
2022-09-03T15:27:51.365Z,18.92
2022-09-03T15:30:20.539Z,19.55
2022-09-03T15:32:53.024Z,20.27
2022-09-03T15:35:49.898Z,20.74
2022-09-03T15:38:36.532Z,21.10
2022-09-03T15:41:10.400Z,20.92
2022-09-03T15:43:39.496Z,21.05
2022-09-03T15:46:34.740Z,21.28
2022-09-03T15:49:12.973Z,21.17
2022-09-03T15:52:05.925Z,20.22
2022-09-03T15:54:46.864Z,20.63
2022-09-03T15:57:51.337Z,19.80
2022-09-03T16:00:22.814Z,20.03
2022-09-03T16:03:09.333Z,19.56
2022-09-03T16:05:39.791Z,19.32
2022-09-03T16:08:19.724Z,19.90
2022-09-03T16:10:56.428Z,19.83
2022-09-03T16:13:55.075Z,19.76
2022-09-03T16:16:31.100Z,19.83
2022-09-03T16:19:04.742Z,19.98
2022-09-03T16:21:50.234Z,20.04
2022-09-03T16:24:23.975Z,19.73
2022-09-03T16:26:57.377Z,19.80
2022-09-03T16:29:31.295Z,19.68
2022-09-03T16:32:30.696Z,19.71
2022-09-03T16:35:03.696Z,19.70
2022-09-03T16:38:12.056Z,19.83
2022-09-03T16:40:51.601Z,19.73
2022-09-03T16:43:41.586Z,19.66
2022-09-03T16:46:30.009Z,19.62
2022-09-03T16:49:19.435Z,19.50
2022-09-03T16:52:04.826Z,19.58
2022-09-03T16:54:55.692Z,19.58
2022-09-03T16:57:38.139Z,19.46
2022-09-03T17:00:05.763Z,19.51
2022-09-03T17:02:58.412Z,19.14
2022-09-03T17:05:43.792Z,19.27
2022-09-03T17:08:34.105Z,19.20
2022-09-03T17:11:07.596Z,19.07
2022-09-03T17:13:58.138Z,18.86
2022-09-03T17:16:47.410Z,18.76
2022-09-03T17:19:48.095Z,18.69
2022-09-03T17:22:20.830Z,18.66
2022-09-03T17:25:03.815Z,18.63
2022-09-03T17:27:50.038Z,18.31
2022-09-03T17:30:29.090Z,18.10
2022-09-03T17:33:05.326Z,17.96
2022-09-03T17:35:44.551Z,17.87
2022-09-03T17:38:23.403Z,17.77
2022-09-03T17:40:59.522Z,17.69
2022-09-03T17:43:41.517Z,17.61
2022-09-03T17:46:46.576Z,17.56
2022-09-03T17:49:48.940Z,17.61
2022-09-03T17:52:32.564Z,17.61
2022-09-03T17:55:24.028Z,17.59
2022-09-03T17:58:31.623Z,17.67
2022-09-03T18:01:15.615Z,17.46
2022-09-03T18:03:54.650Z,17.48
2022-09-03T18:06:55.459Z,17.35
2022-09-03T18:09:38.210Z,17.28
2022-09-03T18:12:14.023Z,17.24
2022-09-03T18:14:51.383Z,17.24
2022-09-03T18:17:55.381Z,17.27
2022-09-03T18:20:43.772Z,17.12
2022-09-03T18:23:47.649Z,16.66
2022-09-03T18:26:46.144Z,16.61
2022-09-03T18:29:54.161Z,16.65
2022-09-03T18:32:39.688Z,16.58
2022-09-03T18:35:27.966Z,16.72
2022-09-03T18:38:13.312Z,16.80
2022-09-03T18:41:12.178Z,16.77
2022-09-03T18:44:14.846Z,16.84
2022-09-03T18:50:53.068Z,16.42
2022-09-03T18:53:53.434Z,16.41
2022-09-03T18:56:41.452Z,16.49
2022-09-03T18:59:53.704Z,16.49
2022-09-03T19:03:20.673Z,16.45
2022-09-03T19:06:34.644Z,16.49
2022-09-03T19:09:54.300Z,16.28
2022-09-03T19:13:04.055Z,16.21
2022-09-03T19:16:03.400Z,16.23
2022-09-03T19:19:24.267Z,16.11
2022-09-03T19:22:23.252Z,16.04
2022-09-03T19:25:12.700Z,15.99
2022-09-03T19:28:04.416Z,15.93
2022-09-03T19:31:23.916Z,15.90
2022-09-03T19:34:25.745Z,15.97
2022-09-03T19:37:27.365Z,15.75
2022-09-03T19:40:43.675Z,15.56
2022-09-03T19:43:44.735Z,15.38
2022-09-03T19:47:03.572Z,15.31
2022-09-03T19:49:55.779Z,15.30
2022-09-03T19:52:58.841Z,15.16
2022-09-03T19:55:46.043Z,15.03
2022-09-03T19:58:43.042Z,15.00
2022-09-03T20:01:30.692Z,14.94
2022-09-03T20:04:19.262Z,14.90
2022-09-03T20:07:05.088Z,14.69
2022-09-03T20:09:57.869Z,14.60
2022-09-03T20:12:28.250Z,14.53
2022-09-03T20:14:54.636Z,14.60
2022-09-03T20:17:33.716Z,14.64
2022-09-03T20:20:10.047Z,14.52
2022-09-03T20:23:20.990Z,14.41
2022-09-03T20:26:20.731Z,14.42
2022-09-03T20:29:14.091Z,14.35
2022-09-03T20:32:16.438Z,14.24
2022-09-03T20:34:56.163Z,14.23
2022-09-03T20:37:36.116Z,14.24
2022-09-03T20:40:12.677Z,14.03
2022-09-03T20:42:42.931Z,14.00
2022-09-03T20:45:24.739Z,13.93
2022-09-03T20:48:01.031Z,13.86
2022-09-03T20:50:36.330Z,13.81
2022-09-03T20:53:14.616Z,13.72
2022-09-03T20:55:50.468Z,13.64
2022-09-03T20:58:45.183Z,13.69
2022-09-03T21:01:25.527Z,13.62
2022-09-03T21:04:05.910Z,13.61
2022-09-03T21:06:53.816Z,13.58
2022-09-03T21:09:32.579Z,13.54
2022-09-03T21:12:31.486Z,13.55
2022-09-03T21:15:24.675Z,13.50
2022-09-03T21:18:15.250Z,13.40
2022-09-03T21:20:57.142Z,13.46
2022-09-03T21:23:35.595Z,13.48
2022-09-03T21:26:16.168Z,13.56
2022-09-03T21:29:03.601Z,13.48
2022-09-03T21:31:59.342Z,13.46
2022-09-03T21:34:40.856Z,13.41
2022-09-03T21:37:12.737Z,13.34
2022-09-03T21:39:46.429Z,13.35
2022-09-03T21:42:32.203Z,13.27
2022-09-03T21:45:07.609Z,13.18
2022-09-03T21:47:40.927Z,13.08
2022-09-03T21:50:17.651Z,13.10
2022-09-03T21:52:56.823Z,13.08
2022-09-03T21:55:41.267Z,13.07
2022-09-03T21:58:20.433Z,12.98
2022-09-03T22:00:50.005Z,13.04
2022-09-03T22:03:16.361Z,13.06
2022-09-03T22:05:57.895Z,13.00
2022-09-03T22:08:49.091Z,12.91
2022-09-03T22:11:28.052Z,12.99
2022-09-03T22:14:10.339Z,13.12
2022-09-03T22:16:55.747Z,13.13
2022-09-03T22:19:23.224Z,13.09
2022-09-03T22:21:59.979Z,12.98
2022-09-03T22:24:41.810Z,13.11
2022-09-03T22:27:15.887Z,13.17
2022-09-03T22:30:13.734Z,13.25
2022-09-03T22:32:56.761Z,13.34
2022-09-03T22:35:32.236Z,13.28
2022-09-03T22:38:44.224Z,13.18
2022-09-03T22:41:16.291Z,13.28
2022-09-03T22:43:49.720Z,13.32
2022-09-03T22:46:20.982Z,13.42
2022-09-03T22:48:59.932Z,13.61
2022-09-03T22:51:35.815Z,13.78
2022-09-03T22:54:25.080Z,13.78
2022-09-03T22:56:52.640Z,13.85
2022-09-03T22:59:28.908Z,13.47
2022-09-03T23:02:26.119Z,13.07
2022-09-03T23:05:35.063Z,13.35
2022-09-03T23:08:22.237Z,13.60
2022-09-03T23:11:02.903Z,13.69
2022-09-03T23:13:51.484Z,13.81
2022-09-03T23:16:31.266Z,13.81
2022-09-03T23:19:01.401Z,13.85
2022-09-03T23:21:39.927Z,13.76
2022-09-03T23:24:26.579Z,13.49
2022-09-03T23:26:53.916Z,13.32
2022-09-03T23:29:25.996Z,13.48
2022-09-03T23:31:56.399Z,13.72
2022-09-03T23:34:23.049Z,13.85
2022-09-03T23:40:20.943Z,14.17
2022-09-03T23:43:05.629Z,14.41
2022-09-03T23:45:50.996Z,14.38
2022-09-03T23:48:52.050Z,14.28
2022-09-03T23:51:25.836Z,14.26
2022-09-03T23:54:06.746Z,14.37
2022-09-03T23:56:48.535Z,14.42
2022-09-03T23:59:25.107Z,14.36
